createdAt,value
2022-08-14T00:01:03.806Z,2.70
2022-08-14T00:03:37.225Z,2.63
2022-08-14T00:06:25.466Z,2.40
2022-08-14T00:08:51.221Z,2.58
2022-08-14T00:11:19.652Z,2.50
2022-08-14T00:13:53.019Z,2.60
2022-08-14T00:19:18.625Z,2.72
2022-08-14T00:21:46.861Z,2.60
2022-08-14T00:24:13.802Z,2.65
2022-08-14T00:26:50.040Z,2.67
2022-08-14T00:29:21.409Z,2.55
2022-08-14T00:31:53.907Z,2.33
2022-08-14T00:34:37.188Z,2.58
2022-08-14T00:37:10.013Z,2.67
2022-08-14T00:39:37.331Z,2.67
2022-08-14T00:42:05.077Z,2.80
2022-08-14T00:44:33.355Z,2.85
2022-08-14T00:47:01.569Z,2.83
2022-08-14T00:49:30.242Z,3.03
2022-08-14T00:51:57.079Z,2.70
2022-08-14T00:54:25.037Z,2.58
2022-08-14T00:56:55.065Z,2.72
2022-08-14T00:59:26.474Z,2.90
2022-08-14T01:01:55.342Z,2.60
2022-08-14T01:04:51.259Z,3.45
2022-08-14T01:07:09.779Z,3.20
2022-08-14T01:09:37.654Z,2.70
2022-08-14T01:12:06.223Z,3.10
2022-08-14T01:14:35.777Z,3.10
2022-08-14T01:17:02.676Z,2.78
2022-08-14T01:19:47.988Z,2.85
2022-08-14T01:22:18.595Z,2.90
2022-08-14T01:24:46.060Z,2.83
2022-08-14T01:27:18.749Z,3.03
2022-08-14T01:30:03.563Z,2.95
2022-08-14T01:32:37.716Z,3.20
2022-08-14T01:35:18.907Z,3.10
2022-08-14T01:37:57.102Z,2.75
2022-08-14T01:40:36.253Z,2.80
2022-08-14T01:43:07.675Z,2.85
2022-08-14T01:45:40.154Z,2.88
2022-08-14T01:48:07.191Z,3.20
2022-08-14T01:50:41.646Z,2.92
2022-08-14T01:53:08.397Z,3.20
2022-08-14T01:55:35.305Z,2.80
2022-08-14T01:58:20.173Z,2.75
2022-08-14T02:00:54.377Z,2.63
2022-08-14T02:03:30.873Z,2.70
2022-08-14T02:06:03.659Z,2.50
2022-08-14T02:08:52.455Z,2.90
2022-08-14T02:14:06.993Z,3.53
2022-08-14T02:16:45.204Z,3.03
2022-08-14T02:19:18.351Z,3.00
2022-08-14T02:21:48.988Z,3.47
2022-08-14T02:24:39.971Z,2.90
2022-08-14T02:28:24.682Z,3.15
2022-08-14T02:30:00.668Z,2.90
2022-08-14T02:32:36.841Z,3.10
2022-08-14T02:35:15.739Z,3.00
2022-08-14T02:37:47.898Z,3.00
2022-08-14T02:40:16.627Z,3.10
2022-08-14T02:42:54.587Z,3.40
2022-08-14T02:45:24.275Z,3.45
2022-08-14T02:47:57.280Z,3.45
2022-08-14T02:50:27.277Z,3.28
2022-08-14T02:52:57.067Z,3.13
2022-08-14T02:55:30.970Z,2.90
2022-08-14T02:57:58.156Z,3.97
2022-08-14T03:00:30.382Z,3.20
2022-08-14T03:02:59.326Z,3.10
2022-08-14T03:05:32.822Z,3.40
2022-08-14T03:08:07.897Z,2.92
2022-08-14T03:10:34.770Z,3.53
2022-08-14T03:13:04.495Z,3.28
2022-08-14T03:15:34.386Z,3.58
2022-08-14T03:18:01.077Z,3.63
2022-08-14T03:20:29.194Z,3.67
2022-08-14T03:22:59.494Z,3.63
2022-08-14T03:25:26.967Z,3.90
2022-08-14T03:27:58.323Z,3.63
2022-08-14T03:30:38.986Z,3.47
2022-08-14T03:33:10.518Z,3.50
2022-08-14T03:35:40.321Z,3.75
2022-08-14T03:39:14.169Z,3.38
2022-08-14T03:41:16.686Z,3.22
2022-08-14T03:43:57.154Z,4.10
2022-08-14T03:46:52.617Z,3.85
2022-08-14T03:49:29.259Z,3.47
2022-08-14T03:51:57.812Z,3.65
2022-08-14T03:54:25.956Z,3.75
2022-08-14T03:56:54.652Z,3.80
2022-08-14T03:59:21.346Z,4.10
2022-08-14T04:01:57.917Z,3.50
2022-08-14T04:04:28.280Z,3.90
2022-08-14T04:06:58.725Z,3.50
2022-08-14T04:09:26.920Z,3.83
2022-08-14T04:11:54.243Z,3.83
2022-08-14T04:14:23.641Z,4.10
2022-08-14T04:16:50.418Z,4.28
2022-08-14T04:19:19.411Z,4.05
2022-08-14T04:22:03.966Z,4.50
2022-08-14T04:24:37.859Z,4.15
2022-08-14T04:27:09.968Z,4.32
2022-08-14T04:29:45.028Z,4.13
2022-08-14T04:32:57.475Z,3.97
2022-08-14T04:35:07.499Z,4.30
2022-08-14T04:37:55.571Z,4.38
2022-08-14T04:40:40.828Z,3.97
2022-08-14T04:43:26.835Z,4.28
2022-08-14T04:46:56.251Z,3.63
2022-08-14T04:51:27.926Z,3.67
2022-08-14T04:53:56.924Z,3.67
2022-08-14T04:56:31.664Z,4.18
2022-08-14T04:59:10.666Z,3.90
2022-08-14T05:01:47.606Z,3.80
2022-08-14T05:04:19.984Z,3.38
2022-08-14T05:06:49.222Z,3.85
2022-08-14T05:09:17.215Z,3.47
2022-08-14T05:11:44.613Z,3.28
2022-08-14T05:14:16.853Z,3.78
2022-08-14T05:17:01.931Z,3.90
2022-08-14T05:19:29.870Z,3.83
2022-08-14T05:22:17.444Z,3.90
2022-08-14T05:24:51.228Z,3.20
2022-08-14T05:27:22.691Z,3.72
2022-08-14T05:29:52.958Z,3.95
2022-08-14T05:32:19.580Z,3.83
2022-08-14T05:34:47.008Z,3.53
2022-08-14T05:37:15.500Z,3.58
2022-08-14T05:39:42.932Z,3.53
2022-08-14T05:42:21.377Z,3.95
2022-08-14T05:44:49.063Z,3.58
2022-08-14T05:47:16.113Z,3.90
2022-08-14T05:49:43.746Z,3.80
2022-08-14T05:52:10.864Z,4.05
2022-08-14T05:54:44.614Z,3.75
2022-08-14T05:57:11.256Z,3.53
2022-08-14T05:59:39.280Z,3.67
2022-08-14T06:02:10.342Z,3.67
2022-08-14T06:04:38.204Z,4.07
2022-08-14T06:07:05.000Z,3.30
2022-08-14T06:09:35.919Z,3.65
2022-08-14T06:12:10.277Z,3.45
2022-08-14T06:14:38.893Z,3.60
2022-08-14T06:17:05.860Z,3.60
2022-08-14T06:19:32.471Z,3.63
2022-08-14T06:21:59.674Z,3.35
2022-08-14T06:24:27.316Z,3.25
2022-08-14T06:27:04.325Z,3.00
2022-08-14T06:29:35.020Z,4.38
2022-08-14T06:32:37.895Z,3.30
2022-08-14T06:35:09.383Z,3.55
2022-08-14T06:37:55.082Z,3.60
2022-08-14T06:40:28.454Z,3.78
2022-08-14T06:43:00.376Z,3.40
2022-08-14T06:45:33.472Z,4.10
2022-08-14T06:48:01.335Z,3.47
2022-08-14T06:50:30.274Z,3.25
2022-08-14T06:53:00.492Z,3.47
2022-08-14T06:55:28.166Z,3.08
2022-08-14T06:57:56.475Z,2.97
2022-08-14T07:00:26.893Z,3.00
2022-08-14T07:03:12.719Z,2.63
2022-08-14T07:05:57.661Z,2.90
2022-08-14T07:08:31.888Z,2.65
2022-08-14T07:11:01.001Z,2.83
2022-08-14T07:13:28.535Z,2.80
2022-08-14T07:15:59.032Z,2.60
2022-08-14T07:18:31.304Z,3.22
2022-08-14T07:21:00.126Z,2.67
2022-08-14T07:23:27.590Z,2.72
2022-08-14T07:25:58.316Z,3.38
2022-08-14T07:28:32.282Z,2.88
2022-08-14T07:31:04.825Z,3.00
2022-08-14T07:33:50.166Z,2.80
2022-08-14T07:36:27.323Z,2.70
2022-08-14T07:38:57.636Z,2.53
2022-08-14T07:41:24.329Z,2.70
2022-08-14T07:43:55.276Z,2.58
2022-08-14T07:46:29.160Z,2.50
2022-08-14T07:48:57.068Z,2.30
2022-08-14T07:51:23.984Z,2.70
2022-08-14T07:53:57.085Z,2.17
2022-08-14T07:56:44.009Z,2.53
2022-08-14T07:59:11.639Z,5.03
2022-08-14T08:01:51.229Z,3.15
2022-08-14T08:04:24.972Z,2.20
2022-08-14T08:06:52.695Z,2.10
2022-08-14T08:09:25.053Z,2.47
2022-08-14T08:11:58.821Z,2.30
2022-08-14T08:14:26.122Z,2.50
2022-08-14T08:16:55.426Z,1.92
2022-08-14T08:19:22.078Z,2.00
2022-08-14T08:21:48.797Z,2.05
2022-08-14T08:24:19.784Z,2.10
2022-08-14T08:26:47.542Z,1.83
2022-08-14T08:29:25.002Z,1.98
2022-08-14T08:31:55.083Z,1.95
2022-08-14T08:34:23.596Z,2.03
2022-08-14T08:36:51.724Z,2.13
2022-08-14T08:39:22.524Z,1.73
2022-08-14T08:41:53.175Z,2.10
2022-08-14T08:44:33.162Z,2.15
2022-08-14T08:47:08.052Z,2.00
2022-08-14T08:49:43.308Z,2.13
2022-08-14T08:52:31.356Z,2.22
2022-08-14T08:57:27.593Z,1.63
2022-08-14T08:59:55.233Z,2.00
2022-08-14T09:02:26.174Z,1.95
2022-08-14T09:05:02.150Z,2.10
2022-08-14T09:07:29.033Z,2.15
2022-08-14T09:10:00.043Z,1.88
2022-08-14T09:12:31.606Z,1.70
2022-08-14T09:15:03.814Z,2.15
2022-08-14T09:17:38.450Z,1.70
2022-08-14T09:20:08.058Z,1.73
2022-08-14T09:22:47.309Z,2.03
2022-08-14T09:25:15.123Z,2.00
2022-08-14T09:27:41.993Z,2.40
2022-08-14T09:30:30.627Z,2.05
2022-08-14T09:33:08.928Z,2.03
2022-08-14T09:35:57.385Z,2.30
2022-08-14T09:38:48.245Z,2.33
2022-08-14T09:42:21.890Z,2.35
2022-08-14T09:45:07.877Z,2.25
2022-08-14T09:47:52.368Z,2.17
2022-08-14T09:50:29.781Z,2.30
2022-08-14T09:53:05.245Z,2.28
2022-08-14T09:55:41.704Z,1.90
2022-08-14T09:58:14.920Z,1.80
2022-08-14T10:00:55.019Z,2.10
2022-08-14T10:03:28.695Z,2.97
2022-08-14T10:06:05.007Z,2.90
2022-08-14T10:08:41.520Z,2.20
2022-08-14T10:11:35.956Z,2.10
2022-08-14T10:14:35.240Z,1.95
2022-08-14T10:17:05.171Z,2.30
2022-08-14T10:19:35.924Z,2.03
2022-08-14T10:23:13.089Z,2.22
2022-08-14T10:24:57.326Z,2.03
2022-08-14T10:27:27.190Z,2.30
2022-08-14T10:29:58.328Z,2.47
2022-08-14T10:32:36.227Z,2.53
2022-08-14T10:35:14.766Z,2.17
2022-08-14T10:37:50.497Z,2.40
2022-08-14T10:40:38.387Z,2.72
2022-08-14T10:43:23.854Z,2.15
2022-08-14T10:46:03.530Z,2.42
2022-08-14T10:49:04.349Z,2.10
2022-08-14T10:51:36.296Z,2.10
2022-08-14T10:54:36.190Z,2.25
2022-08-14T10:56:55.970Z,2.15
2022-08-14T10:59:22.944Z,2.30
2022-08-14T11:01:59.723Z,2.10
2022-08-14T11:04:28.654Z,1.95
2022-08-14T11:06:57.886Z,2.08
2022-08-14T11:09:26.478Z,2.10
2022-08-14T11:12:34.448Z,2.03
2022-08-14T11:15:02.380Z,2.35
2022-08-14T11:17:31.750Z,2.20
2022-08-14T11:20:00.344Z,2.42
2022-08-14T11:22:56.233Z,2.33
2022-08-14T11:25:16.375Z,2.42
2022-08-14T11:27:45.198Z,2.60
2022-08-14T11:30:51.755Z,2.60
2022-08-14T11:33:05.364Z,2.40
2022-08-14T11:35:47.286Z,2.70
2022-08-14T11:38:17.127Z,2.47
2022-08-14T11:40:46.893Z,2.00
2022-08-14T11:43:14.849Z,2.10
2022-08-14T11:45:41.520Z,2.15
2022-08-14T11:48:58.998Z,2.65
2022-08-14T11:51:13.942Z,2.38
2022-08-14T11:53:42.103Z,2.55
2022-08-14T11:56:11.052Z,2.35
2022-08-14T11:58:38.690Z,2.55
2022-08-14T12:01:09.762Z,2.58
2022-08-14T12:03:51.252Z,2.40
2022-08-14T12:06:29.807Z,2.33
2022-08-14T12:09:08.790Z,1.80
2022-08-14T12:11:44.301Z,2.25
2022-08-14T12:17:12.785Z,2.22
2022-08-14T12:22:11.326Z,2.10
2022-08-14T12:24:47.073Z,2.53
2022-08-14T12:27:16.885Z,3.90
2022-08-14T12:29:53.284Z,2.07
2022-08-14T12:32:19.980Z,2.30
2022-08-14T12:34:52.764Z,1.90
2022-08-14T12:37:29.057Z,1.95
2022-08-14T12:39:57.061Z,2.10
2022-08-14T12:42:38.674Z,1.90
2022-08-14T12:45:13.095Z,2.03
2022-08-14T12:47:44.234Z,1.92
2022-08-14T12:50:18.241Z,1.95
2022-08-14T12:53:02.163Z,1.88
2022-08-14T12:56:18.664Z,1.70
2022-08-14T12:58:35.093Z,1.65
2022-08-14T13:01:16.851Z,1.52
2022-08-14T13:03:44.143Z,1.90
2022-08-14T13:06:12.074Z,1.58
2022-08-14T13:08:46.457Z,1.98
2022-08-14T13:11:20.428Z,1.90
2022-08-14T13:13:51.220Z,1.75
2022-08-14T13:16:20.569Z,1.50
2022-08-14T13:19:01.851Z,1.60
2022-08-14T13:21:29.881Z,1.75
2022-08-14T13:24:16.933Z,1.70
2022-08-14T13:26:46.518Z,1.58
2022-08-14T13:29:16.558Z,1.63
2022-08-14T13:31:49.687Z,1.50
2022-08-14T13:34:16.987Z,1.70
2022-08-14T13:36:51.611Z,1.88
2022-08-14T13:39:23.064Z,1.83
2022-08-14T13:41:56.118Z,1.88
2022-08-14T13:44:25.474Z,1.60
2022-08-14T13:46:52.976Z,1.40
2022-08-14T13:49:19.841Z,1.98
2022-08-14T13:51:52.941Z,1.70
2022-08-14T13:54:21.231Z,2.75
2022-08-14T13:56:49.489Z,1.73
2022-08-14T13:59:20.596Z,2.50
2022-08-14T14:02:06.915Z,1.60
2022-08-14T14:04:39.792Z,1.60
2022-08-14T14:07:08.377Z,1.30
2022-08-14T14:09:50.849Z,1.83
2022-08-14T14:12:38.282Z,1.67
2022-08-14T14:15:11.276Z,1.63
2022-08-14T14:17:38.970Z,1.30
2022-08-14T14:20:11.451Z,1.92
2022-08-14T14:23:02.236Z,1.50
2022-08-14T14:25:46.091Z,2.17
2022-08-14T14:28:24.113Z,1.27
2022-08-14T14:30:54.452Z,1.50
2022-08-14T14:33:45.300Z,1.30
2022-08-14T14:36:13.886Z,1.20
2022-08-14T14:38:42.269Z,1.17
2022-08-14T14:41:09.369Z,1.20
2022-08-14T14:43:38.991Z,1.30
2022-08-14T14:46:09.056Z,1.30
2022-08-14T14:48:46.795Z,1.75
2022-08-14T14:51:22.041Z,1.20
2022-08-14T14:53:49.039Z,1.35
2022-08-14T14:56:48.378Z,1.15
2022-08-14T14:59:02.946Z,1.40
2022-08-14T15:01:32.100Z,1.25
2022-08-14T15:04:00.172Z,1.27
2022-08-14T15:06:33.662Z,1.15
2022-08-14T15:09:01.039Z,1.00
2022-08-14T15:11:30.381Z,1.20
2022-08-14T15:13:58.728Z,1.20
2022-08-14T15:16:27.513Z,1.10
2022-08-14T15:18:54.326Z,1.48
2022-08-14T15:21:21.560Z,1.30
2022-08-14T15:23:51.544Z,1.20
2022-08-14T15:26:23.332Z,1.30
2022-08-14T15:29:03.321Z,1.52
2022-08-14T15:31:32.296Z,1.33
2022-08-14T15:34:44.287Z,1.17
2022-08-14T15:37:05.983Z,1.70
2022-08-14T15:39:38.501Z,1.40
2022-08-14T15:42:14.796Z,1.17
2022-08-14T15:44:50.779Z,1.70
2022-08-14T15:47:29.101Z,3.05
2022-08-14T15:49:59.484Z,1.92
2022-08-14T15:52:35.245Z,1.70
2022-08-14T15:55:09.976Z,1.15
2022-08-14T15:57:40.046Z,1.60
2022-08-14T16:00:49.201Z,1.30
2022-08-14T16:03:27.482Z,1.35
2022-08-14T16:06:10.738Z,1.30
2022-08-14T16:08:42.595Z,1.30
2022-08-14T16:11:09.986Z,1.10
2022-08-14T16:13:47.601Z,1.88
2022-08-14T16:16:48.143Z,1.48
2022-08-14T16:19:11.482Z,1.50
2022-08-14T16:22:01.474Z,1.52
2022-08-14T16:24:59.577Z,1.67
2022-08-14T16:27:34.305Z,1.60
2022-08-14T16:30:25.304Z,1.83
2022-08-14T16:32:57.328Z,1.50
2022-08-14T16:35:43.477Z,1.42
2022-08-14T16:38:46.223Z,1.50
2022-08-14T16:41:22.841Z,1.50
2022-08-14T16:43:51.257Z,1.50
2022-08-14T16:46:22.015Z,1.67
2022-08-14T16:48:57.288Z,1.33
2022-08-14T16:51:25.893Z,1.20
2022-08-14T16:53:54.753Z,1.35
2022-08-14T16:56:25.554Z,1.30
2022-08-14T16:59:15.063Z,1.50
2022-08-14T17:01:46.799Z,2.13
2022-08-14T17:04:24.777Z,2.10
2022-08-14T17:06:55.021Z,1.63
2022-08-14T17:09:30.513Z,1.52
2022-08-14T17:12:28.739Z,2.03
2022-08-14T17:15:14.977Z,1.60
2022-08-14T17:17:57.826Z,1.95
2022-08-14T17:20:53.357Z,1.77
2022-08-14T17:23:12.255Z,2.05
2022-08-14T17:25:40.301Z,2.17
2022-08-14T17:28:52.187Z,1.80
2022-08-14T17:31:08.121Z,2.30
2022-08-14T17:33:44.275Z,1.75
2022-08-14T17:36:22.402Z,1.33
2022-08-14T17:38:59.686Z,1.40
2022-08-14T17:41:32.878Z,1.48
2022-08-14T17:44:20.231Z,1.60
2022-08-14T17:46:55.199Z,1.98
2022-08-14T17:49:32.032Z,1.70
2022-08-14T17:52:07.853Z,1.55
2022-08-14T17:54:58.864Z,1.63
2022-08-14T17:57:30.332Z,1.88
2022-08-14T18:00:02.440Z,2.25
2022-08-14T18:02:31.220Z,1.60
2022-08-14T18:05:00.179Z,1.42
2022-08-14T18:08:33.227Z,1.55
2022-08-14T18:10:51.946Z,1.67
2022-08-14T18:13:03.798Z,1.88
2022-08-14T18:15:36.858Z,2.20
2022-08-14T18:18:09.034Z,1.90
2022-08-14T18:21:42.679Z,2.08
2022-08-14T18:23:25.274Z,1.90
2022-08-14T18:25:53.195Z,1.90
2022-08-14T18:28:51.655Z,1.92
2022-08-14T18:31:22.711Z,2.03
2022-08-14T18:34:31.849Z,2.38
2022-08-14T18:37:06.955Z,1.95
2022-08-14T18:40:02.221Z,1.60
2022-08-14T18:42:30.476Z,2.22
2022-08-14T18:47:28.810Z,1.60
2022-08-14T18:50:01.116Z,1.77
2022-08-14T18:58:01.585Z,1.75
2022-08-14T19:00:33.642Z,1.60
2022-08-14T19:03:04.523Z,2.33
2022-08-14T19:05:47.512Z,1.70
2022-08-14T19:08:24.939Z,1.70
2022-08-14T19:10:59.632Z,1.65
2022-08-14T19:13:44.661Z,2.03
2022-08-14T19:16:22.844Z,2.08
2022-08-14T19:18:53.313Z,1.88
2022-08-14T19:21:31.770Z,1.90
2022-08-14T19:24:30.388Z,1.65
2022-08-14T19:27:23.832Z,1.50
2022-08-14T19:29:53.899Z,1.48
2022-08-14T19:32:39.629Z,1.63
2022-08-14T19:35:18.285Z,1.70
2022-08-14T19:37:56.308Z,2.20
2022-08-14T19:40:39.994Z,1.90
2022-08-14T19:43:09.278Z,2.10
2022-08-14T19:45:37.441Z,1.80
2022-08-14T19:48:10.136Z,1.75
2022-08-14T19:50:41.017Z,2.22
2022-08-14T19:55:45.545Z,2.28
2022-08-14T19:58:12.742Z,1.85
2022-08-14T20:00:52.594Z,1.95
2022-08-14T20:03:24.188Z,2.05
2022-08-14T20:06:01.713Z,2.45
2022-08-14T20:10:58.392Z,2.33
2022-08-14T20:12:00.677Z,2.10
2022-08-14T20:14:23.669Z,2.05
2022-08-14T20:17:06.258Z,2.78
2022-08-14T20:19:37.766Z,2.03
2022-08-14T20:22:37.218Z,2.35
2022-08-14T20:24:55.486Z,2.22
2022-08-14T20:27:33.681Z,2.80
2022-08-14T20:30:28.300Z,2.60
2022-08-14T20:32:55.223Z,2.05
2022-08-14T20:35:35.226Z,2.25
2022-08-14T20:38:30.391Z,2.33
2022-08-14T20:40:58.626Z,2.58
2022-08-14T20:43:52.775Z,2.45
2022-08-14T20:46:38.604Z,2.53
2022-08-14T20:49:08.537Z,3.63
2022-08-14T20:51:47.440Z,2.80
2022-08-14T20:54:34.234Z,2.47
2022-08-14T20:57:12.064Z,2.80
2022-08-14T20:59:53.640Z,2.30
2022-08-14T21:02:34.759Z,2.28
2022-08-14T21:05:16.676Z,2.47
2022-08-14T21:07:44.551Z,2.78
2022-08-14T21:10:35.344Z,2.47
2022-08-14T21:13:25.480Z,3.25
2022-08-14T21:15:57.401Z,2.85
2022-08-14T21:18:35.361Z,2.85
2022-08-14T21:21:17.155Z,3.10
2022-08-14T21:23:54.415Z,3.28
2022-08-14T21:26:51.099Z,4.05
2022-08-14T21:29:11.409Z,3.10
2022-08-14T21:31:40.092Z,2.40
2022-08-14T21:34:31.033Z,2.67
2022-08-14T21:36:54.481Z,2.30
2022-08-14T21:39:22.593Z,2.88
2022-08-14T21:41:59.022Z,2.60
2022-08-14T21:44:34.365Z,2.95
2022-08-14T21:47:12.122Z,2.58
2022-08-14T21:49:40.238Z,2.22
2022-08-14T21:52:50.950Z,2.28
2022-08-14T21:55:08.523Z,2.50
2022-08-14T21:57:55.718Z,2.20
2022-08-14T22:00:35.997Z,2.60
2022-08-14T22:03:08.931Z,2.67
2022-08-14T22:05:39.748Z,2.40
2022-08-14T22:08:12.428Z,2.33
2022-08-14T22:10:42.552Z,1.90
2022-08-14T22:13:11.722Z,2.33
2022-08-14T22:15:43.920Z,2.10
2022-08-14T22:18:20.557Z,2.35
2022-08-14T22:20:48.120Z,3.08
2022-08-14T22:23:21.236Z,2.45
2022-08-14T22:25:49.965Z,2.55
2022-08-14T22:28:32.501Z,2.67
2022-08-14T22:31:01.882Z,2.20
2022-08-14T22:33:31.161Z,3.10
2022-08-14T22:35:59.223Z,2.22
2022-08-14T22:38:37.974Z,2.30
2022-08-14T22:41:26.892Z,2.50
2022-08-14T22:44:01.959Z,1.98
2022-08-14T22:46:28.749Z,2.70
2022-08-14T22:48:57.603Z,2.10
2022-08-14T22:51:26.164Z,2.17
2022-08-14T22:53:55.180Z,2.40
2022-08-14T22:56:29.391Z,2.17
2022-08-14T22:59:02.324Z,2.22
2022-08-14T23:01:56.547Z,3.57
2022-08-14T23:04:35.692Z,3.30
2022-08-14T23:07:22.074Z,2.97
2022-08-14T23:10:31.263Z,2.40
2022-08-14T23:12:54.854Z,2.72
2022-08-14T23:15:23.252Z,2.67
2022-08-14T23:17:50.133Z,2.58
2022-08-14T23:20:19.992Z,2.60
2022-08-14T23:22:51.235Z,2.53
2022-08-14T23:25:20.126Z,2.90
2022-08-14T23:28:07.045Z,2.70
2022-08-14T23:30:55.206Z,2.58
2022-08-14T23:33:22.019Z,2.70
2022-08-14T23:35:59.172Z,2.88
2022-08-14T23:38:30.704Z,2.72
2022-08-14T23:40:58.948Z,2.28
2022-08-14T23:43:28.390Z,2.50
2022-08-14T23:45:58.743Z,2.58
2022-08-14T23:48:28.127Z,2.60
2022-08-14T23:50:55.100Z,2.55
2022-08-14T23:53:48.291Z,2.80
2022-08-14T23:56:31.841Z,2.42
